Wartrace, Illinois
Current Conditions -  °F | °C
As of 7:55 AM on Friday 31 Oct 2014 (Local Time) from KM30 Reporting Station
Overcast Overcast  
Wind Chill: 51°   Ceiling: 3900
Heat Index: 51°   Visibility: 10mi
Dew Point: 51°   Wind: 14mph
Humidity: 100%   Direction: 340°NNW
Pressure: 30.07"   Gusts: NA
Location:  37.3798°N, 88.7652°W
Report Text: KM30 311255Z AUTO 34012KT 10SM OVC039 10/10 A3007 RMK AO2 T01030103
Loading
Personal Weather Stations






























Interactive Weather Map
Tropical Storm Tracking
New forecast layout! Learn more

10-Day Weather Forecast

Advertisements
Track Severe Weather on mobile